Terminal Aerodrome Forecast
Issued by NWS

Home | Current Version | Previous Version | Graphics & Text | Print | Product List | Glossary On
Versions: 1 2 3 4 5 6 7 8 9 10 11 12 13 14 15 16 17 18 19 20 21 22 23 24 25 26
603
FTUS45 KGGW 231120
TAFOLF
TAF
KOLF 231120Z 2312/2412 26007KT P6SM SCT150
     FM231500 27016KT P6SM FEW150
     FM231800 28022G31KT P6SM FEW100
     FM240300 28012KT P6SM SCT080=

USA.gov is the U.S. government's official web portal to all federal, state and local government web resources and services.